Time;durP1;ratioP1;P1;durP2;ratioP2;P2;SDS_P1;SDS_P2;PMS_P1;PMS_P2;Temp;Humidity;BMP_temperature;BMP_pressure;BME280_temperature;BME280_humidity;BME280_pressure;Samples;Min_cycle;Max_cycle;Signal;HPM_P1;HPM_P2
2023/08/01 00:02:30;;;;;;;0.13;0.13;;;;;;;14.43;100.00;95207.50;5031914;28;20082;-76
2023/08/01 00:05:16;;;;;;;0.15;0.15;;;;;;;14.44;100.00;95204.50;5035861;28;20053;-76
2023/08/01 00:08:02;;;;;;;0.10;0.10;;;;;;;14.47;100.00;95198.56;5032302;28;20498;-76
2023/08/01 00:10:48;;;;;;;0.10;0.10;;;;;;;14.51;100.00;95216.78;5037408;28;20432;-78
2023/08/01 00:13:34;;;;;;;0.10;0.10;;;;;;;14.49;100.00;95196.34;5038525;28;20040;-75
2023/08/01 00:16:20;;;;;;;0.10;0.10;;;;;;;14.55;100.00;95188.94;5037616;28;20475;-77
2023/08/01 00:19:06;;;;;;;0.10;0.10;;;;;;;14.51;100.00;95176.41;5038885;28;20047;-76
2023/08/01 00:21:51;;;;;;;0.10;0.10;;;;;;;14.52;100.00;95169.91;5035009;28;20648;-77
2023/08/01 00:24:37;;;;;;;0.10;0.10;;;;;;;14.49;100.00;95172.13;5035035;28;20041;-76
2023/08/01 00:27:24;;;;;;;0.10;0.10;;;;;;;14.38;100.00;95162.63;5035128;28;20041;-76
2023/08/01 00:30:10;;;;;;;0.10;0.10;;;;;;;14.40;100.00;95154.28;5021511;28;20357;-78
2023/08/01 00:32:56;;;;;;;0.10;0.10;;;;;;;14.35;100.00;95151.69;5035295;28;20048;-76
2023/08/01 00:35:41;;;;;;;0.10;0.10;;;;;;;14.35;100.00;95143.63;5032870;28;20052;-76
2023/08/01 00:38:28;;;;;;;0.10;0.10;;;;;;;14.36;100.00;95146.00;5019572;28;20053;-78
2023/08/01 00:41:14;;;;;;;0.10;0.10;;;;;;;14.35;100.00;95125.59;5037029;28;20041;-78
2023/08/01 00:44:00;;;;;;;0.10;0.10;;;;;;;14.32;100.00;95125.38;5033445;28;20037;-75
2023/08/01 00:46:46;;;;;;;0.10;0.10;;;;;;;14.31;100.00;95105.75;5036620;28;20047;-76
2023/08/01 00:49:32;;;;;;;0.10;0.10;;;;;;;14.39;100.00;95123.84;5034134;28;20037;-77
2023/08/01 00:52:18;;;;;;;0.10;0.10;;;;;;;14.42;100.00;95130.53;5035831;28;20037;-76
2023/08/01 00:55:04;;;;;;;0.10;0.10;;;;;;;14.45;100.00;95119.16;5036958;28;20056;-76
2023/08/01 00:57:52;;;;;;;0.20;0.20;;;;;;;14.44;100.00;95104.13;5033765;28;20071;-78
2023/08/01 01:00:39;;;;;;;0.10;0.10;;;;;;;14.44;100.00;95083.38;5036452;28;20123;-76
2023/08/01 01:03:25;;;;;;;0.10;0.10;;;;;;;14.49;100.00;95115.59;5034355;28;20057;-75
2023/08/01 01:06:17;;;;;;;0.10;0.10;;;;;;;14.53;100.00;95123.84;5035302;28;20374;-78
2023/08/01 01:09:15;;;;;;;0.10;0.10;;;;;;;14.54;100.00;95127.34;5032883;28;20143;-78
2023/08/01 01:12:01;;;;;;;0.13;0.13;;;;;;;14.59;100.00;95132.59;5020431;28;20049;-78
2023/08/01 01:14:47;;;;;;;0.10;0.10;;;;;;;14.60;100.00;95109.97;5032124;28;20030;-78
2023/08/01 01:17:32;;;;;;;0.10;0.10;;;;;;;14.63;100.00;95096.72;5034886;28;20036;-78
2023/08/01 01:20:24;;;;;;;0.10;0.10;;;;;;;14.63;100.00;95090.50;5033208;28;20425;-77
2023/08/01 01:23:11;;;;;;;0.10;0.10;;;;;;;14.62;100.00;95107.75;5033860;28;20041;-77
2023/08/01 01:25:57;;;;;;;0.10;0.10;;;;;;;14.61;100.00;95096.19;5035359;28;20050;-76
2023/08/01 01:28:44;;;;;;;0.10;0.10;;;;;;;14.66;100.00;95101.47;5020817;28;20592;-77
2023/08/01 01:31:31;;;;;;;0.10;0.10;;;;;;;14.60;100.00;95097.28;5035406;28;20089;-78
2023/08/01 01:34:18;;;;;;;0.10;0.10;;;;;;;14.60;100.00;95094.59;5020408;28;20025;-77
2023/08/01 01:37:07;;;;;;;0.10;0.10;;;;;;;14.74;100.00;95095.34;5033462;28;20477;-77
2023/08/01 01:39:52;;;;;;;0.10;0.10;;;;;;;14.77;100.00;95072.38;5034946;28;20502;-77
2023/08/01 01:42:38;;;;;;;0.10;0.10;;;;;;;14.75;100.00;95070.00;5034825;28;20047;-77
2023/08/01 01:45:24;;;;;;;0.10;0.10;;;;;;;14.70;100.00;95070.13;5036122;28;20607;-76
2023/08/01 01:48:10;;;;;;;0.00;0.00;;;;;;;14.73;100.00;95053.38;5006574;28;20515;-78
2023/08/01 01:50:56;;;;;;;0.10;0.10;;;;;;;14.76;100.00;95041.97;5033178;28;20418;-77
2023/08/01 01:53:42;;;;;;;0.10;0.10;;;;;;;14.70;100.00;95050.47;5032745;28;20048;-78
2023/08/01 01:56:27;;;;;;;0.10;0.10;;;;;;;14.78;100.00;95038.97;5037015;28;20048;-76
2023/08/01 01:59:13;;;;;;;0.10;0.10;;;;;;;14.67;100.00;95022.28;5017158;28;20045;-76
2023/08/01 02:01:59;;;;;;;0.10;0.10;;;;;;;14.75;100.00;95018.84;5032406;28;20132;-77
2023/08/01 02:04:49;;;;;;;0.10;0.10;;;;;;;14.67;100.00;95003.44;5020751;28;20118;-77
2023/08/01 02:07:35;;;;;;;0.10;0.10;;;;;;;14.66;100.00;94993.78;5032736;28;20380;-78
2023/08/01 02:10:22;;;;;;;0.10;0.10;;;;;;;14.67;100.00;94994.56;5020834;28;20049;-77
2023/08/01 02:13:08;;;;;;;0.10;0.10;;;;;;;14.68;100.00;94998.84;5031524;28;20049;-78
2023/08/01 02:15:54;;;;;;;0.10;0.10;;;;;;;14.68;100.00;94988.09;5032202;28;20091;-77
2023/08/01 02:18:40;;;;;;;0.10;0.10;;;;;;;14.56;100.00;94988.66;5020816;28;20144;-76
2023/08/01 02:21:26;;;;;;;0.10;0.10;;;;;;;14.55;100.00;95010.50;5036582;28;20391;-77
2023/08/01 02:24:12;;;;;;;0.10;0.10;;;;;;;14.48;100.00;95021.72;5003650;28;20136;-77
2023/08/01 02:26:58;;;;;;;0.10;0.10;;;;;;;14.57;100.00;94995.63;5004259;28;20400;-76
2023/08/01 02:29:44;;;;;;;0.10;0.10;;;;;;;14.56;100.00;94985.19;5035644;28;20041;-77
2023/08/01 02:32:30;;;;;;;0.10;0.10;;;;;;;14.54;100.00;94985.47;5032321;28;20037;-77
2023/08/01 02:35:17;;;;;;;0.10;0.10;;;;;;;14.50;100.00;94968.38;5034202;28;20045;-75
2023/08/01 02:38:04;;;;;;;0.08;0.08;;;;;;;14.57;100.00;94960.66;5032403;28;20041;-76
2023/08/01 02:40:50;;;;;;;0.10;0.10;;;;;;;14.53;100.00;94956.19;5033666;28;20155;-77
2023/08/01 02:43:36;;;;;;;0.10;0.10;;;;;;;14.51;100.00;94956.50;5029854;28;20124;-77
2023/08/01 02:46:22;;;;;;;0.10;0.10;;;;;;;14.51;100.00;94953.00;5032140;28;20452;-76
2023/08/01 02:49:08;;;;;;;0.10;0.10;;;;;;;14.53;100.00;94958.88;5032545;28;20403;-77
2023/08/01 02:51:54;;;;;;;0.10;0.10;;;;;;;14.52;100.00;94952.69;5016666;28;20056;-77
2023/08/01 02:54:40;;;;;;;0.10;0.10;;;;;;;14.51;100.00;94940.34;5032209;28;20130;-76
2023/08/01 02:57:25;;;;;;;0.10;0.10;;;;;;;14.55;100.00;94929.75;5015354;28;20067;-77
2023/08/01 03:00:11;;;;;;;0.10;0.10;;;;;;;14.61;100.00;94931.19;5035619;28;20040;-78
2023/08/01 03:02:57;;;;;;;0.10;0.10;;;;;;;14.72;100.00;94937.91;5029574;28;20068;-77
2023/08/01 03:05:43;;;;;;;0.10;0.10;;;;;;;14.72;100.00;94932.53;5034004;28;20068;-77
2023/08/01 03:08:29;;;;;;;0.10;0.10;;;;;;;14.66;100.00;94918.41;5031003;28;20048;-76
2023/08/01 03:11:15;;;;;;;0.10;0.10;;;;;;;14.70;100.00;94927.44;5021631;28;20045;-76
2023/08/01 03:14:01;;;;;;;0.10;0.10;;;;;;;14.79;100.00;94921.31;5029152;28;20036;-76
2023/08/01 03:16:47;;;;;;;0.10;0.10;;;;;;;14.80;100.00;94912.13;5009113;28;20455;-77
2023/08/01 03:19:33;;;;;;;0.10;0.10;;;;;;;14.75;100.00;94924.59;5032821;28;20566;-78
2023/08/01 03:22:19;;;;;;;0.10;0.10;;;;;;;14.75;100.00;94907.66;5032205;28;20135;-77
2023/08/01 03:25:07;;;;;;;0.10;0.10;;;;;;;14.73;100.00;94913.38;5034749;28;20087;-77
2023/08/01 03:27:54;;;;;;;0.10;0.10;;;;;;;14.72;100.00;94917.16;5016962;28;20120;-78
2023/08/01 03:30:40;;;;;;;0.10;0.10;;;;;;;14.73;100.00;94926.81;5020037;28;20150;-77
2023/08/01 03:33:26;;;;;;;0.10;0.10;;;;;;;14.79;100.00;94953.63;5029743;28;20049;-76
2023/08/01 03:36:12;;;;;;;0.10;0.10;;;;;;;14.71;100.00;94937.13;5017652;28;20190;-77
2023/08/01 03:38:58;;;;;;;0.10;0.10;;;;;;;14.71;100.00;94936.31;5032415;28;20044;-76
2023/08/01 03:41:44;;;;;;;0.10;0.10;;;;;;;14.71;100.00;94934.44;5034446;28;20052;-75
2023/08/01 03:44:30;;;;;;;0.15;0.15;;;;;;;14.70;100.00;94932.81;5017175;28;20248;-76
2023/08/01 03:47:15;;;;;;;0.10;0.10;;;;;;;14.67;100.00;94932.66;5033417;28;20504;-77
2023/08/01 03:50:02;;;;;;;0.10;0.10;;;;;;;14.64;100.00;94933.28;5014331;28;20126;-76
2023/08/01 03:52:48;;;;;;;0.10;0.10;;;;;;;14.62;100.00;94936.25;5031692;28;20479;-76
2023/08/01 03:55:34;;;;;;;0.10;0.10;;;;;;;14.61;100.00;94929.31;5029801;28;20033;-76
2023/08/01 03:58:21;;;;;;;0.10;0.10;;;;;;;14.56;100.00;94931.34;5029369;28;20045;-78
2023/08/01 04:01:06;;;;;;;0.10;0.10;;;;;;;14.57;100.00;94933.72;5017345;28;20506;-75
2023/08/01 04:03:52;;;;;;;0.10;0.10;;;;;;;14.59;100.00;94944.97;5019546;28;20048;-76
2023/08/01 04:06:38;;;;;;;0.10;0.10;;;;;;;14.59;100.00;94974.59;5033880;28;20212;-79
2023/08/01 04:09:24;;;;;;;0.00;0.00;;;;;;;14.53;100.00;94948.09;5018735;28;20093;-76
2023/08/01 04:12:10;;;;;;;0.08;0.08;;;;;;;14.47;100.00;94967.09;5035263;28;20060;-77
2023/08/01 04:14:56;;;;;;;0.10;0.10;;;;;;;14.48;100.00;94963.31;5035297;28;20041;-76
2023/08/01 04:17:42;;;;;;;0.10;0.10;;;;;;;14.39;100.00;94972.38;5031680;28;20245;-75
2023/08/01 04:20:28;;;;;;;0.10;0.10;;;;;;;14.27;100.00;94977.53;5035651;28;20045;-78
2023/08/01 04:23:13;;;;;;;0.10;0.10;;;;;;;14.09;100.00;94972.06;5034543;28;20048;-77
2023/08/01 04:25:59;;;;;;;0.10;0.10;;;;;;;13.99;100.00;94974.97;5038043;28;20032;-76
2023/08/01 04:28:47;;;;;;;0.10;0.10;;;;;;;13.77;100.00;94977.63;5034299;28;20419;-77
2023/08/01 04:31:33;;;;;;;0.03;0.03;;;;;;;13.60;100.00;94980.97;5032319;28;20877;-77
2023/08/01 04:34:19;;;;;;;0.10;0.10;;;;;;;13.50;100.00;94976.63;5033811;28;20159;-75
2023/08/01 04:37:05;;;;;;;0.10;0.10;;;;;;;13.45;100.00;94981.31;5034318;28;20554;-75
2023/08/01 04:39:51;;;;;;;0.10;0.10;;;;;;;13.41;100.00;94988.41;5033758;28;20099;-78
2023/08/01 04:42:37;;;;;;;0.10;0.10;;;;;;;13.37;100.00;94982.81;5033738;28;20052;-76
2023/08/01 04:45:22;;;;;;;0.13;0.13;;;;;;;13.33;100.00;94981.84;5032368;28;20080;-77
2023/08/01 04:48:08;;;;;;;0.10;0.10;;;;;;;13.34;100.00;94986.13;5018392;28;20160;-79
2023/08/01 04:50:54;;;;;;;0.10;0.10;;;;;;;13.39;100.00;94988.72;5035252;28;20595;-77
2023/08/01 04:53:40;;;;;;;0.08;0.08;;;;;;;13.36;100.00;94990.09;5030968;28;20491;-76
2023/08/01 04:56:26;;;;;;;0.10;0.10;;;;;;;13.37;100.00;94991.66;5023796;28;20495;-76
2023/08/01 04:59:12;;;;;;;0.10;0.10;;;;;;;13.28;100.00;94974.69;5023691;28;20076;-77
2023/08/01 05:01:58;;;;;;;0.10;0.10;;;;;;;13.25;100.00;94986.03;5036770;28;20238;-78
2023/08/01 05:04:43;;;;;;;0.10;0.10;;;;;;;13.25;100.00;94999.47;5037896;28;20045;-78
2023/08/01 05:07:30;;;;;;;0.10;0.10;;;;;;;13.23;100.00;94995.47;5037866;28;20594;-77
2023/08/01 05:10:16;;;;;;;0.10;0.10;;;;;;;13.27;100.00;94993.78;5038448;28;20132;-77
2023/08/01 05:13:02;;;;;;;0.05;0.05;;;;;;;13.19;100.00;94984.50;5017513;28;20279;-77
2023/08/01 05:15:48;;;;;;;0.10;0.10;;;;;;;13.19;100.00;94991.78;5036183;28;20037;-76
2023/08/01 05:18:34;;;;;;;0.10;0.10;;;;;;;13.17;100.00;94988.59;5036592;28;20040;-76
2023/08/01 05:21:20;;;;;;;0.10;0.10;;;;;;;13.19;100.00;95007.88;5034635;28;20077;-76
2023/08/01 05:24:06;;;;;;;0.10;0.10;;;;;;;13.08;100.00;94996.56;5036801;28;20044;-77
2023/08/01 05:26:51;;;;;;;0.10;0.10;;;;;;;13.15;100.00;95006.88;5036336;28;20332;-75
2023/08/01 05:29:37;;;;;;;0.10;0.10;;;;;;;13.15;100.00;95013.06;5036933;28;20037;-76
2023/08/01 05:32:23;;;;;;;0.10;0.10;;;;;;;13.15;100.00;95023.81;5034648;28;20111;-76
2023/08/01 05:35:09;;;;;;;0.10;0.10;;;;;;;13.10;100.00;95027.38;5038352;28;20107;-77
2023/08/01 05:37:55;;;;;;;0.20;0.20;;;;;;;13.10;100.00;95040.81;5037128;28;20033;-77
2023/08/01 05:40:41;;;;;;;0.17;0.17;;;;;;;13.12;100.00;95040.50;5022319;28;20049;-77
2023/08/01 05:43:27;;;;;;;0.10;0.10;;;;;;;13.16;100.00;95046.09;5034998;28;20047;-76
2023/08/01 05:46:13;;;;;;;0.10;0.10;;;;;;;13.21;100.00;95054.06;5021364;28;20045;-76
2023/08/01 05:48:58;;;;;;;0.00;0.00;;;;;;;13.11;100.00;95058.53;5035152;28;20565;-78
2023/08/01 05:51:44;;;;;;;0.00;0.00;;;;;;;13.20;100.00;95063.22;5033346;28;20486;-78
2023/08/01 05:54:30;;;;;;;0.10;0.10;;;;;;;13.23;100.00;95060.75;5035582;28;20102;-76
2023/08/01 05:57:16;;;;;;;0.10;0.10;;;;;;;13.29;100.00;95069.50;5017971;28;20140;-77
2023/08/01 06:00:02;;;;;;;0.10;0.10;;;;;;;13.28;100.00;95051.78;5038619;28;20045;-77
2023/08/01 06:02:58;;;;;;;0.20;0.20;;;;;;;13.23;100.00;95047.31;5034265;28;20785;-76
2023/08/01 06:05:44;;;;;;;0.10;0.10;;;;;;;13.19;100.00;95048.19;5022984;28;20047;-77
2023/08/01 06:08:30;;;;;;;0.20;0.20;;;;;;;13.10;100.00;95042.72;5035537;28;20547;-77
2023/08/01 06:11:16;;;;;;;0.10;0.10;;;;;;;13.02;100.00;95051.47;5036766;28;20046;-77
2023/08/01 06:14:02;;;;;;;0.10;0.10;;;;;;;12.97;100.00;95046.97;5035153;28;20046;-79
2023/08/01 06:16:48;;;;;;;0.20;0.20;;;;;;;12.97;100.00;95033.53;5023845;28;20049;-78
2023/08/01 06:19:34;;;;;;;0.10;0.10;;;;;;;13.02;100.00;95038.03;5037361;28;20044;-76
2023/08/01 06:22:22;;;;;;;0.10;0.10;;;;;;;13.21;100.00;95044.13;5017699;28;20049;-77
2023/08/01 06:25:08;;;;;;;0.17;0.17;;;;;;;13.26;100.00;95041.34;5035758;28;20072;-76
2023/08/01 06:27:57;;;;;;;0.10;0.10;;;;;;;13.20;100.00;95033.69;5035437;28;21084;-77
2023/08/01 06:30:42;;;;;;;0.10;0.10;;;;;;;13.25;100.00;95038.97;5034728;28;20050;-77
2023/08/01 06:33:28;;;;;;;0.10;0.10;;;;;;;13.26;100.00;95043.25;5036927;28;20140;-78
2023/08/01 06:36:16;;;;;;;0.10;0.10;;;;;;;13.28;100.00;95043.72;5035347;28;20045;-76
2023/08/01 06:39:03;;;;;;;0.10;0.10;;;;;;;13.25;100.00;95044.34;5022122;28;20736;-77
2023/08/01 06:41:49;;;;;;;0.10;0.10;;;;;;;13.27;100.00;95042.13;5040045;28;20045;-79
2023/08/01 06:44:34;;;;;;;0.10;0.10;;;;;;;13.24;100.00;95058.88;5034864;28;20043;-77
2023/08/01 06:47:20;;;;;;;0.20;0.20;;;;;;;13.24;100.00;95054.28;5018959;28;20042;-77
2023/08/01 06:50:06;;;;;;;0.10;0.10;;;;;;;13.21;100.00;95056.75;5033995;28;20055;-76
2023/08/01 06:52:52;;;;;;;0.10;0.10;;;;;;;13.26;100.00;95046.72;5035072;28;20339;-76
2023/08/01 06:55:38;;;;;;;0.10;0.10;;;;;;;13.32;100.00;95053.59;5016884;28;20124;-78
2023/08/01 06:58:24;;;;;;;0.10;0.10;;;;;;;13.36;100.00;95059.13;5032030;28;20043;-78
2023/08/01 07:01:10;;;;;;;0.10;0.10;;;;;;;13.48;100.00;95051.38;5035326;28;20611;-77
2023/08/01 07:03:56;;;;;;;0.10;0.10;;;;;;;13.47;100.00;95049.00;5034144;28;20049;-77
2023/08/01 07:06:42;;;;;;;0.10;0.10;;;;;;;13.41;100.00;95061.75;5034586;28;20041;-76
2023/08/01 07:09:30;;;;;;;0.10;0.10;;;;;;;13.62;100.00;95060.22;5036437;28;20036;-77
2023/08/01 07:12:16;;;;;;;0.20;0.20;;;;;;;13.82;100.00;95053.59;5033128;28;20119;-77
2023/08/01 07:15:01;;;;;;;0.20;0.20;;;;;;;13.91;100.00;95061.75;5032166;28;20041;-77
2023/08/01 07:17:47;;;;;;;0.13;0.13;;;;;;;14.08;100.00;95061.09;5030966;28;20084;-78
2023/08/01 07:20:33;;;;;;;0.10;0.10;;;;;;;14.20;100.00;95064.06;5033506;28;20538;-77
2023/08/01 07:23:19;;;;;;;0.17;0.17;;;;;;;14.31;100.00;95060.00;5032502;28;20041;-77
2023/08/01 07:26:05;;;;;;;0.10;0.10;;;;;;;14.23;100.00;95064.22;5034434;28;20048;-78
2023/08/01 07:28:51;;;;;;;0.17;0.17;;;;;;;14.23;100.00;95075.00;5031715;28;20435;-77
2023/08/01 07:31:37;;;;;;;0.10;0.10;;;;;;;14.19;100.00;95073.22;5031548;28;20126;-77
2023/08/01 07:34:23;;;;;;;0.10;0.10;;;;;;;14.24;100.00;95081.19;5032999;28;20084;-78
2023/08/01 07:37:10;;;;;;;0.20;0.20;;;;;;;14.25;100.00;95088.16;5029864;28;20475;-78
2023/08/01 07:39:56;;;;;;;0.10;0.10;;;;;;;14.26;100.00;95084.38;5019854;28;20040;-76
2023/08/01 07:42:42;;;;;;;0.10;0.10;;;;;;;14.26;100.00;95088.94;5033875;28;20663;-76
2023/08/01 07:45:28;;;;;;;0.10;0.10;;;;;;;14.16;100.00;95093.47;5029907;28;20109;-77
2023/08/01 07:48:16;;;;;;;0.15;0.15;;;;;;;14.24;100.00;95094.63;5033392;28;20036;-77
2023/08/01 07:51:05;;;;;;;0.10;0.10;;;;;;;14.40;100.00;95095.88;5034249;28;20127;-77
2023/08/01 07:53:52;;;;;;;0.10;0.10;;;;;;;14.48;100.00;95092.47;5034074;28;20044;-77
2023/08/01 07:56:38;;;;;;;0.13;0.13;;;;;;;14.65;100.00;95097.19;5033563;28;20664;-76
2023/08/01 07:59:23;;;;;;;0.10;0.10;;;;;;;14.98;100.00;95097.69;5031295;28;20112;-77
2023/08/01 08:02:09;;;;;;;0.10;0.10;;;;;;;15.19;100.00;95092.56;5016347;28;20636;-78
2023/08/01 08:04:55;;;;;;;0.10;0.10;;;;;;;14.98;100.00;95092.31;5032104;28;20125;-79
2023/08/01 08:07:41;;;;;;;0.10;0.10;;;;;;;14.77;100.00;95094.72;5033450;28;20862;-79
2023/08/01 08:10:27;;;;;;;0.10;0.10;;;;;;;15.47;100.00;95084.25;5031304;28;20403;-77
2023/08/01 08:13:13;;;;;;;0.10;0.10;;;;;;;16.13;100.00;95085.88;5034500;28;20601;-78
2023/08/01 08:15:59;;;;;;;0.10;0.10;;;;;;;16.53;100.00;95088.41;5032600;28;20048;-76
2023/08/01 08:18:45;;;;;;;0.10;0.10;;;;;;;16.34;100.00;95090.63;5030532;28;20692;-76
2023/08/01 08:21:30;;;;;;;0.10;0.10;;;;;;;15.70;100.00;95088.50;5033383;28;20044;-77
2023/08/01 08:24:16;;;;;;;0.10;0.10;;;;;;;15.21;100.00;95086.88;5033234;28;20052;-77
2023/08/01 08:27:02;;;;;;;0.10;0.10;;;;;;;15.26;100.00;95084.06;5031799;28;20140;-77
2023/08/01 08:29:50;;;;;;;0.10;0.10;;;;;;;15.39;100.00;95083.13;5020484;28;20526;-76
2023/08/01 08:32:36;;;;;;;0.10;0.10;;;;;;;16.02;100.00;95095.38;5036259;28;20037;-77
2023/08/01 08:35:22;;;;;;;0.10;0.10;;;;;;;15.87;100.00;95107.44;5003089;28;20872;-76
2023/08/01 08:38:08;;;;;;;0.10;0.10;;;;;;;15.54;100.00;95128.53;5038480;28;20109;-77
2023/08/01 08:41:20;;;;;;;0.10;0.10;;;;;;;15.43;100.00;95110.28;5024460;28;20098;-76
2023/08/01 08:44:08;;;;;;;0.10;0.10;;;;;;;15.28;100.00;95108.78;5035619;28;20090;-77
2023/08/01 08:46:59;;;;;;;0.20;0.20;;;;;;;15.27;100.00;95109.88;5037098;28;20072;-76
2023/08/01 08:49:46;;;;;;;0.10;0.10;;;;;;;15.50;100.00;95113.31;5036899;28;20912;-77
2023/08/01 08:52:33;;;;;;;0.10;0.10;;;;;;;15.76;100.00;95121.50;5036136;28;20044;-77
2023/08/01 08:55:21;;;;;;;0.10;0.10;;;;;;;16.12;100.00;95107.78;5034876;28;20389;-77
2023/08/01 08:58:08;;;;;;;0.20;0.20;;;;;;;16.23;100.00;95117.16;5033406;28;20407;-78
2023/08/01 09:00:55;;;;;;;0.10;0.10;;;;;;;16.23;100.00;95100.16;5033946;28;20277;-76
2023/08/01 09:03:41;;;;;;;0.10;0.10;;;;;;;16.56;100.00;95109.34;5031431;28;20041;-77
2023/08/01 09:06:32;;;;;;;0.10;0.10;;;;;;;16.41;100.00;95117.94;5035636;28;20388;-77
2023/08/01 09:09:18;;;;;;;0.10;0.10;;;;;;;16.29;100.00;95110.50;5025601;28;20660;-78
2023/08/01 09:12:04;;;;;;;0.13;0.13;;;;;;;16.25;100.00;95114.91;5036575;28;20037;-77
2023/08/01 09:14:51;;;;;;;0.10;0.10;;;;;;;16.26;100.00;95116.50;5035284;28;20060;-77
2023/08/01 09:17:47;;;;;;;0.10;0.10;;;;;;;17.02;100.00;95126.03;5035210;28;20518;-77
2023/08/01 09:20:47;;;;;;;0.10;0.10;;;;;;;17.50;100.00;95126.50;5022149;28;20041;-78
2023/08/01 09:23:33;;;;;;;0.10;0.10;;;;;;;17.42;100.00;95132.75;5035612;28;20049;-76
2023/08/01 09:26:20;;;;;;;0.10;0.10;;;;;;;17.52;100.00;95118.88;5036557;28;20041;-77
2023/08/01 09:29:06;;;;;;;0.10;0.10;;;;;;;17.87;100.00;95150.41;5034848;28;20520;-77
2023/08/01 09:31:54;;;;;;;0.20;0.20;;;;;;;17.74;100.00;95122.47;5035731;28;20061;-77
2023/08/01 09:34:41;;;;;;;0.20;0.20;;;;;;;17.86;100.00;95135.31;5010678;28;20568;-78
2023/08/01 09:37:41;;;;;;;0.10;0.10;;;;;;;17.54;100.00;95132.06;5031931;28;20503;-77
2023/08/01 09:40:36;;;;;;;0.10;0.10;;;;;;;17.48;100.00;95122.56;5035808;28;20439;-77
2023/08/01 09:43:22;;;;;;;0.10;0.10;;;;;;;17.17;100.00;95131.72;5035365;28;20040;-77
2023/08/01 09:46:08;;;;;;;0.10;0.10;;;;;;;16.77;100.00;95136.56;5035387;28;20045;-77
2023/08/01 09:48:54;;;;;;;0.10;0.10;;;;;;;16.40;100.00;95132.56;5019291;28;20438;-77
2023/08/01 09:51:48;;;;;;;0.10;0.10;;;;;;;17.00;100.00;95137.16;5034287;28;20049;-76
2023/08/01 09:54:34;;;;;;;0.10;0.10;;;;;;;17.78;100.00;95136.94;5036901;28;20037;-77
2023/08/01 09:57:21;;;;;;;0.13;0.13;;;;;;;17.69;100.00;95144.28;5034319;28;20094;-77
2023/08/01 10:00:09;;;;;;;0.10;0.10;;;;;;;17.56;100.00;95148.75;4971744;28;20682;-78
2023/08/01 10:03:01;;;;;;;0.20;0.20;;;;;;;17.17;100.00;95149.84;5027196;28;20487;-77
2023/08/01 10:05:47;;;;;;;0.20;0.20;;;;;;;17.60;100.00;95148.94;5034161;28;20131;-77
2023/08/01 10:08:34;;;;;;;0.20;0.20;;;;;;;18.42;100.00;95144.03;5017202;28;20044;-76
2023/08/01 10:11:22;;;;;;;0.10;0.10;;;;;;;18.54;100.00;95133.28;5034599;28;20045;-77
2023/08/01 10:14:08;;;;;;;0.10;0.10;;;;;;;18.74;100.00;95140.63;5020321;28;20056;-77
2023/08/01 10:16:56;;;;;;;0.10;0.10;;;;;;;18.34;100.00;95130.22;5030035;28;20043;-76
2023/08/01 10:19:42;;;;;;;0.10;0.10;;;;;;;17.68;100.00;95143.47;5035118;28;20037;-77
2023/08/01 10:22:28;;;;;;;0.10;0.10;;;;;;;17.04;100.00;95140.78;5035627;28;20746;-77
2023/08/01 10:25:16;;;;;;;0.10;0.10;;;;;;;16.57;100.00;95156.84;5034707;28;20056;-76
2023/08/01 10:28:05;;;;;;;0.10;0.10;;;;;;;16.50;100.00;95163.84;5019391;28;20085;-77
2023/08/01 10:30:51;;;;;;;0.10;0.10;;;;;;;16.87;100.00;95155.13;5033840;28;20350;-78
2023/08/01 10:33:38;;;;;;;0.10;0.10;;;;;;;17.36;100.00;95152.19;5032229;28;20044;-78
2023/08/01 10:36:31;;;;;;;0.10;0.10;;;;;;;17.84;100.00;95151.88;4996271;28;20053;-77
2023/08/01 10:39:22;;;;;;;0.17;0.17;;;;;;;18.30;100.00;95147.47;5027337;28;20052;-78
2023/08/01 10:42:12;;;;;;;0.20;0.20;;;;;;;18.87;100.00;95142.25;5014924;28;20396;-78
2023/08/01 10:44:57;;;;;;;0.20;0.20;;;;;;;19.35;100.00;95142.75;5029862;28;20474;-77
2023/08/01 10:47:43;;;;;;;0.20;0.20;;;;;;;19.40;100.00;95154.19;5032736;28;20036;-78
2023/08/01 10:50:29;;;;;;;0.20;0.20;;;;;;;18.88;100.00;95143.06;5033431;28;20135;-78
2023/08/01 10:53:15;;;;;;;0.20;0.20;;;;;;;18.74;100.00;95148.75;5030438;28;20043;-79
2023/08/01 10:56:01;;;;;;;0.20;0.20;;;;;;;19.31;100.00;95153.47;5033854;28;20379;-78
2023/08/01 10:58:47;;;;;;;0.20;0.20;;;;;;;19.03;100.00;95158.69;5012810;28;20049;-78
2023/08/01 11:01:43;;;;;;;0.30;0.20;;;;;;;20.07;100.00;95156.75;5032941;28;20388;-79
2023/08/01 11:04:29;;;;;;;0.10;0.10;;;;;;;20.96;100.00;95143.91;5018275;28;20470;-76
2023/08/01 11:07:15;;;;;;;0.13;0.13;;;;;;;21.15;100.00;95151.41;5028984;28;20045;-78
2023/08/01 11:10:09;;;;;;;0.10;0.10;;;;;;;20.06;100.00;95166.03;5016470;28;20072;-77
2023/08/01 11:12:56;;;;;;;0.10;0.10;;;;;;;18.94;100.00;95174.25;5034462;28;20072;-77
2023/08/01 11:15:43;;;;;;;0.10;0.10;;;;;;;18.29;100.00;95173.75;5034550;28;20052;-77
2023/08/01 11:18:30;;;;;;;0.10;0.10;;;;;;;18.08;100.00;95179.13;5018699;28;20121;-77
2023/08/01 11:21:26;;;;;;;0.10;0.10;;;;;;;18.05;100.00;95176.25;5035063;28;20118;-78
2023/08/01 11:24:12;;;;;;;0.20;0.20;;;;;;;18.54;100.00;95195.56;5034701;28;20052;-78
2023/08/01 11:26:58;;;;;;;0.20;0.20;;;;;;;19.75;100.00;95189.06;5034853;28;20033;-78
2023/08/01 11:29:44;;;;;;;0.20;0.20;;;;;;;19.99;100.00;95180.16;5033413;28;20879;-77
2023/08/01 11:32:37;;;;;;;0.30;0.30;;;;;;;22.24;100.00;95181.84;5033566;28;20052;-77
2023/08/01 11:35:23;;;;;;;0.30;0.30;;;;;;;26.04;100.00;95175.59;5032088;28;20620;-77
2023/08/01 11:38:09;;;;;;;0.20;0.20;;;;;;;28.41;88.87;95176.25;5033254;28;20625;-77
2023/08/01 11:40:57;;;;;;;0.20;0.20;;;;;;;30.08;69.63;95185.91;5033898;28;20133;-78
2023/08/01 11:43:43;;;;;;;0.20;0.20;;;;;;;28.72;64.04;95184.88;5033365;28;20045;-77
2023/08/01 11:46:33;;;;;;;0.20;0.20;;;;;;;30.14;53.24;95173.25;5035182;28;20450;-78
2023/08/01 11:49:19;;;;;;;0.20;0.20;;;;;;;32.01;54.11;95179.13;5017927;28;20133;-78
2023/08/01 11:52:06;;;;;;;0.20;0.20;;;;;;;30.59;56.76;95172.50;5033110;28;20466;-78
2023/08/01 11:54:52;;;;;;;0.20;0.20;;;;;;;31.29;51.89;95170.22;5017494;28;20466;-77
2023/08/01 11:57:38;;;;;;;0.10;0.10;;;;;;;27.12;70.68;95188.91;5030112;28;20612;-77
2023/08/01 12:00:28;;;;;;;0.10;0.10;;;;;;;23.25;96.62;95188.31;5034627;28;20403;-77
2023/08/01 12:03:14;;;;;;;0.10;0.10;;;;;;;21.68;100.00;95190.16;5017962;28;20037;-77
2023/08/01 12:06:07;;;;;;;0.10;0.10;;;;;;;20.76;100.00;95199.25;5033198;28;20640;-77
2023/08/01 12:08:53;;;;;;;0.10;0.10;;;;;;;20.44;100.00;95198.28;5031633;28;20095;-77
2023/08/01 12:11:41;;;;;;;0.17;0.17;;;;;;;20.26;100.00;95197.72;5019591;28;20518;-79
2023/08/01 12:14:27;;;;;;;0.10;0.10;;;;;;;19.53;100.00;95205.72;5035532;28;20130;-77
2023/08/01 12:17:13;;;;;;;0.20;0.20;;;;;;;23.37;100.00;95185.47;5031256;28;20505;-77
2023/08/01 12:19:59;;;;;;;0.20;0.20;;;;;;;30.48;61.55;95183.63;5034760;28;20037;-77
2023/08/01 12:22:45;;;;;;;0.10;0.10;;;;;;;29.29;62.27;95179.22;5017124;28;20044;-78
2023/08/01 12:25:31;;;;;;;0.20;0.20;;;;;;;30.80;60.98;95191.63;5033648;28;20069;-79
2023/08/01 12:28:16;;;;;;;0.10;0.10;;;;;;;30.36;54.97;95175.84;5031830;28;20045;-78
2023/08/01 12:31:03;;;;;;;0.10;0.10;;;;;;;28.69;67.05;95169.13;5031994;28;20568;-78
2023/08/01 12:33:49;;;;;;;0.00;0.00;;;;;;;23.95;86.43;95181.84;5032228;28;20539;-78
2023/08/01 12:36:35;;;;;;;0.10;0.10;;;;;;;22.17;100.00;95181.66;5036367;28;20493;-78
2023/08/01 12:39:21;;;;;;;0.10;0.10;;;;;;;20.64;100.00;95202.78;5034140;28;20132;-77
2023/08/01 12:42:07;;;;;;;0.00;0.00;;;;;;;19.35;100.00;95216.75;5036370;28;20037;-79
2023/08/01 12:44:53;;;;;;;0.00;0.00;;;;;;;17.68;100.00;95235.44;5032463;28;20059;-78
2023/08/01 12:47:39;;;;;;;0.00;0.00;;;;;;;16.69;100.00;95253.50;5033309;28;20707;-76
2023/08/01 12:50:24;;;;;;;0.10;0.10;;;;;;;16.87;100.00;95260.47;5033956;28;20114;-77
2023/08/01 12:53:11;;;;;;;0.10;0.10;;;;;;;17.14;100.00;95253.19;5030014;28;20075;-77
2023/08/01 12:55:56;;;;;;;0.10;0.10;;;;;;;17.19;100.00;95239.50;5035453;28;20073;-78
2023/08/01 12:58:42;;;;;;;0.10;0.10;;;;;;;17.44;100.00;95244.09;5028152;28;20040;-77